Time;durP1;ratioP1;P1;durP2;ratioP2;P2;SDS_P1;SDS_P2;PMS_P1;PMS_P2;Temp;Humidity;BMP_temperature;BMP_pressure;BME280_temperature;BME280_humidity;BME280_pressure;Samples;Min_cycle;Max_cycle;Signal;HPM_P1;HPM_P2
2021/06/28 00:00:57;;;;;;;;;;;22.30;55.70;;;;;;492317;242;1141;-76
2021/06/28 00:02:58;;;;;;;;;;;22.30;55.90;;;;;;492157;242;2180;-76
2021/06/28 00:04:59;;;;;;;;;;;22.30;56.00;;;;;;492278;242;1256;-76
2021/06/28 00:07:01;;;;;;;;;;;22.30;56.00;;;;;;492207;242;1209;-76
2021/06/28 00:09:02;;;;;;;;;;;22.20;56.00;;;;;;492251;242;946;-76
2021/06/28 00:11:03;;;;;;;;;;;22.30;56.00;;;;;;492173;242;1199;-75
2021/06/28 00:13:05;;;;;;;;;;;22.30;56.00;;;;;;492259;242;1153;-76
2021/06/28 00:15:06;;;;;;;;;;;22.20;56.00;;;;;;492226;242;940;-76
2021/06/28 00:17:07;;;;;;;;;;;22.30;55.90;;;;;;492170;242;1279;-76
2021/06/28 00:19:09;;;;;;;;;;;22.40;55.70;;;;;;492226;242;1261;-76
2021/06/28 00:21:10;;;;;;;;;;;22.40;55.60;;;;;;492143;242;1206;-76
2021/06/28 00:23:11;;;;;;;;;;;22.40;55.60;;;;;;492221;242;2191;-76
2021/06/28 00:25:13;;;;;;;;;;;22.40;55.60;;;;;;492242;242;1184;-76
2021/06/28 00:27:14;;;;;;;;;;;22.40;55.50;;;;;;492163;242;1181;-76
2021/06/28 00:29:15;;;;;;;;;;;22.40;55.50;;;;;;492233;242;1055;-76
2021/06/28 00:31:17;;;;;;;;;;;22.40;55.60;;;;;;492158;242;1281;-76
2021/06/28 00:33:18;;;;;;;;;;;22.40;55.60;;;;;;492197;242;1133;-76
2021/06/28 00:35:21;;;;;;;;;;;22.30;55.60;;;;;;492176;242;1091;-76
2021/06/28 00:37:21;;;;;;;;;;;22.40;55.70;;;;;;492042;242;1442;-76
2021/06/28 00:39:22;;;;;;;;;;;22.30;55.60;;;;;;492206;242;1055;-76
2021/06/28 00:41:23;;;;;;;;;;;22.40;55.70;;;;;;492169;242;1142;-76
2021/06/28 00:43:25;;;;;;;;;;;22.40;55.60;;;;;;492223;242;2140;-76
2021/06/28 00:45:26;;;;;;;;;;;22.30;55.70;;;;;;492287;242;950;-76
2021/06/28 00:47:27;;;;;;;;;;;22.30;55.80;;;;;;492267;242;1349;-76
2021/06/28 00:49:29;;;;;;;;;;;22.30;55.70;;;;;;492212;242;958;-76
2021/06/28 00:51:30;;;;;;;;;;;22.30;55.60;;;;;;492162;242;1239;-76
2021/06/28 00:53:31;;;;;;;;;;;22.50;55.30;;;;;;492234;242;1080;-76
2021/06/28 00:55:33;;;;;;;;;;;22.40;55.30;;;;;;492234;239;1142;-76
2021/06/28 00:57:34;;;;;;;;;;;22.40;55.40;;;;;;492193;242;1249;-76
2021/06/28 00:59:35;;;;;;;;;;;22.40;55.50;;;;;;492247;242;1102;-76
2021/06/28 01:01:37;;;;;;;;;;;22.30;55.50;;;;;;492197;242;1223;-76
2021/06/28 01:03:38;;;;;;;;;;;22.30;55.60;;;;;;492256;242;2149;-76
2021/06/28 01:05:39;;;;;;;;;;;22.40;55.50;;;;;;492282;242;1108;-76
2021/06/28 01:07:41;;;;;;;;;;;22.30;55.40;;;;;;492284;242;1191;-76
2021/06/28 01:09:42;;;;;;;;;;;22.40;55.50;;;;;;492245;242;1063;-76
2021/06/28 01:11:43;;;;;;;;;;;22.40;55.50;;;;;;492314;242;1254;-75
2021/06/28 01:13:45;;;;;;;;;;;22.30;55.50;;;;;;492231;242;978;-76
2021/06/28 01:15:46;;;;;;;;;;;22.30;55.60;;;;;;492227;242;1043;-76
2021/06/28 01:17:47;;;;;;;;;;;22.30;55.70;;;;;;492292;242;1059;-76
2021/06/28 01:19:49;;;;;;;;;;;22.20;55.80;;;;;;492321;242;969;-76
2021/06/28 01:21:50;;;;;;;;;;;22.20;55.80;;;;;;492253;242;1052;-76
2021/06/28 01:23:51;;;;;;;;;;;22.20;56.00;;;;;;492307;242;2144;-76
2021/06/28 01:25:53;;;;;;;;;;;22.10;56.10;;;;;;492211;242;1165;-76
2021/06/28 01:27:54;;;;;;;;;;;22.10;56.10;;;;;;492285;242;980;-76
2021/06/28 01:29:55;;;;;;;;;;;22.20;56.10;;;;;;492277;242;1038;-76
2021/06/28 01:31:57;;;;;;;;;;;22.20;56.00;;;;;;492228;242;1003;-76
2021/06/28 01:33:58;;;;;;;;;;;22.20;56.10;;;;;;492392;242;1332;-76
2021/06/28 01:35:59;;;;;;;;;;;22.20;56.10;;;;;;492295;242;1015;-76
2021/06/28 01:38:01;;;;;;;;;;;22.20;56.10;;;;;;492295;242;1191;-76
2021/06/28 01:40:02;;;;;;;;;;;22.20;56.10;;;;;;492224;242;1046;-76
2021/06/28 01:42:04;;;;;;;;;;;22.20;56.00;;;;;;492186;242;1337;-76
2021/06/28 01:44:05;;;;;;;;;;;22.20;56.10;;;;;;492243;242;2184;-76
2021/06/28 01:46:06;;;;;;;;;;;22.20;56.10;;;;;;492227;242;1195;-76
2021/06/28 01:48:08;;;;;;;;;;;22.10;56.00;;;;;;492270;242;956;-76
2021/06/28 01:50:09;;;;;;;;;;;22.10;56.10;;;;;;492265;242;1036;-76
2021/06/28 01:52:10;;;;;;;;;;;22.10;56.00;;;;;;492279;242;1234;-76
2021/06/28 01:54:13;;;;;;;;;;;22.20;55.90;;;;;;492231;242;1038;-76
2021/06/28 01:56:13;;;;;;;;;;;22.20;55.70;;;;;;492187;242;1885;-76
2021/06/28 01:58:14;;;;;;;;;;;22.10;55.90;;;;;;492154;242;1144;-76
2021/06/28 02:00:16;;;;;;;;;;;22.10;55.90;;;;;;492238;242;1125;-76
2021/06/28 02:02:17;;;;;;;;;;;22.20;55.90;;;;;;492231;242;1198;-76
2021/06/28 02:04:18;;;;;;;;;;;22.10;56.00;;;;;;492337;242;2176;-76
2021/06/28 02:06:20;;;;;;;;;;;22.20;56.10;;;;;;492222;242;1251;-76
2021/06/28 02:08:21;;;;;;;;;;;22.20;55.90;;;;;;492316;242;1023;-76
2021/06/28 02:10:22;;;;;;;;;;;22.20;56.00;;;;;;492164;242;1064;-76
2021/06/28 02:12:25;;;;;;;;;;;22.10;56.00;;;;;;492167;242;1122;-76
2021/06/28 02:14:26;;;;;;;;;;;22.10;56.10;;;;;;492203;242;1161;-76
2021/06/28 02:16:27;;;;;;;;;;;22.10;56.20;;;;;;492146;242;1271;-76
2021/06/28 02:18:29;;;;;;;;;;;22.00;56.20;;;;;;492216;242;1226;-76
2021/06/28 02:20:30;;;;;;;;;;;22.10;56.20;;;;;;492201;242;1012;-76
2021/06/28 02:22:31;;;;;;;;;;;22.00;56.20;;;;;;492252;242;1061;-76
2021/06/28 02:24:33;;;;;;;;;;;22.00;56.30;;;;;;492286;242;2195;-76
2021/06/28 02:26:34;;;;;;;;;;;22.00;56.30;;;;;;492234;242;1460;-76
2021/06/28 02:28:35;;;;;;;;;;;22.00;56.30;;;;;;492293;242;979;-76
2021/06/28 02:30:37;;;;;;;;;;;22.00;56.30;;;;;;492248;242;1025;-76
2021/06/28 02:32:38;;;;;;;;;;;22.00;56.30;;;;;;492235;242;1080;-76
2021/06/28 02:34:39;;;;;;;;;;;22.00;56.40;;;;;;492200;242;996;-76
2021/06/28 02:36:41;;;;;;;;;;;22.00;56.40;;;;;;492207;242;1178;-76
2021/06/28 02:38:42;;;;;;;;;;;22.00;56.30;;;;;;492273;242;1022;-76
2021/06/28 02:40:43;;;;;;;;;;;22.00;56.20;;;;;;492178;242;1247;-76
2021/06/28 02:42:45;;;;;;;;;;;22.00;56.20;;;;;;492253;242;1211;-76
2021/06/28 02:44:46;;;;;;;;;;;22.00;56.40;;;;;;492234;242;2188;-75
2021/06/28 02:46:47;;;;;;;;;;;22.00;56.30;;;;;;492193;242;1213;-76
2021/06/28 02:48:49;;;;;;;;;;;22.00;56.30;;;;;;492255;242;1060;-76
2021/06/28 02:50:50;;;;;;;;;;;21.90;56.40;;;;;;492142;242;1119;-76
2021/06/28 02:52:51;;;;;;;;;;;22.00;56.30;;;;;;492284;242;1144;-76
2021/06/28 02:54:53;;;;;;;;;;;22.20;56.20;;;;;;492295;242;959;-76
2021/06/28 02:56:54;;;;;;;;;;;22.20;55.80;;;;;;492252;242;1211;-76
2021/06/28 02:58:55;;;;;;;;;;;22.00;56.10;;;;;;492300;242;1064;-75
2021/06/28 03:00:57;;;;;;;;;;;22.10;56.20;;;;;;492195;242;1199;-76
2021/06/28 03:02:59;;;;;;;;;;;21.90;56.30;;;;;;492365;242;1165;-75
2021/06/28 03:05:00;;;;;;;;;;;22.00;56.30;;;;;;492251;242;2129;-76
2021/06/28 03:07:01;;;;;;;;;;;21.90;56.30;;;;;;492187;242;1071;-76
2021/06/28 03:09:02;;;;;;;;;;;22.00;56.30;;;;;;492299;242;962;-76
2021/06/28 03:11:04;;;;;;;;;;;22.00;56.20;;;;;;492143;242;1124;-76
2021/06/28 03:13:07;;;;;;;;;;;21.90;56.30;;;;;;492273;242;1289;-76
2021/06/28 03:15:07;;;;;;;;;;;22.00;56.40;;;;;;492231;242;1564;-76
2021/06/28 03:17:08;;;;;;;;;;;22.00;56.30;;;;;;492160;242;1128;-76
2021/06/28 03:19:10;;;;;;;;;;;21.90;56.50;;;;;;492343;242;921;-76
2021/06/28 03:21:11;;;;;;;;;;;22.00;56.40;;;;;;492183;242;1102;-76
2021/06/28 03:23:12;;;;;;;;;;;21.90;56.40;;;;;;492245;242;1292;-76
2021/06/28 03:25:13;;;;;;;;;;;21.90;56.40;;;;;;492310;242;2191;-76
2021/06/28 03:27:15;;;;;;;;;;;22.00;56.30;;;;;;492065;242;1116;-76
2021/06/28 03:29:16;;;;;;;;;;;21.90;56.40;;;;;;492189;242;1217;-76
2021/06/28 03:31:17;;;;;;;;;;;22.00;56.30;;;;;;492166;242;1087;-76
2021/06/28 03:33:19;;;;;;;;;;;22.00;56.30;;;;;;492179;242;1246;-76
2021/06/28 03:35:20;;;;;;;;;;;22.00;56.40;;;;;;492240;242;960;-76
2021/06/28 03:37:22;;;;;;;;;;;22.00;56.30;;;;;;492342;242;1182;-76
2021/06/28 03:39:23;;;;;;;;;;;22.00;56.30;;;;;;492257;242;1046;-76
2021/06/28 03:41:24;;;;;;;;;;;22.00;56.20;;;;;;492195;242;1076;-76
2021/06/28 03:43:25;;;;;;;;;;;22.00;56.30;;;;;;492260;242;1203;-76
2021/06/28 03:45:27;;;;;;;;;;;22.00;56.30;;;;;;492204;242;2207;-76
2021/06/28 03:47:28;;;;;;;;;;;22.00;56.30;;;;;;492207;242;1088;-76
2021/06/28 03:49:29;;;;;;;;;;;21.90;56.30;;;;;;492285;242;953;-76
2021/06/28 03:51:31;;;;;;;;;;;22.00;56.40;;;;;;492284;242;1174;-76
2021/06/28 03:53:32;;;;;;;;;;;22.00;56.30;;;;;;492306;242;1025;-76
2021/06/28 03:55:33;;;;;;;;;;;22.10;56.00;;;;;;492212;242;964;-76
2021/06/28 03:57:35;;;;;;;;;;;22.00;56.20;;;;;;492185;242;1121;-76
2021/06/28 03:59:36;;;;;;;;;;;21.90;56.30;;;;;;492229;242;1062;-76
2021/06/28 04:01:37;;;;;;;;;;;21.90;56.40;;;;;;492131;242;1200;-76
2021/06/28 04:03:39;;;;;;;;;;;21.80;56.50;;;;;;492227;242;1156;-76
2021/06/28 04:05:41;;;;;;;;;;;21.90;56.50;;;;;;492165;242;2156;-76
2021/06/28 04:07:41;;;;;;;;;;;21.90;56.40;;;;;;492119;242;1228;-76
2021/06/28 04:09:43;;;;;;;;;;;21.90;56.40;;;;;;492264;242;1060;-76
2021/06/28 04:11:44;;;;;;;;;;;21.90;56.40;;;;;;492037;242;1180;-76
2021/06/28 04:13:45;;;;;;;;;;;21.90;56.50;;;;;;492204;242;1193;-76
2021/06/28 04:15:47;;;;;;;;;;;21.90;56.40;;;;;;492117;242;1150;-76
2021/06/28 04:17:48;;;;;;;;;;;21.90;56.30;;;;;;492165;242;1179;-76
2021/06/28 04:19:49;;;;;;;;;;;21.90;56.40;;;;;;492139;242;1073;-76
2021/06/28 04:21:51;;;;;;;;;;;21.90;56.40;;;;;;492074;242;1186;-76
2021/06/28 04:23:52;;;;;;;;;;;21.90;56.50;;;;;;492191;242;1059;-76
2021/06/28 04:25:53;;;;;;;;;;;21.90;56.50;;;;;;492049;242;2129;-76
2021/06/28 04:27:55;;;;;;;;;;;21.90;56.40;;;;;;491926;242;1132;-76
2021/06/28 04:29:56;;;;;;;;;;;21.90;56.40;;;;;;492064;242;1061;-76
2021/06/28 04:31:58;;;;;;;;;;;22.00;56.20;;;;;;492048;242;1127;-76
2021/06/28 04:33:59;;;;;;;;;;;22.00;56.10;;;;;;492132;242;1087;-76
2021/06/28 04:36:00;;;;;;;;;;;21.90;56.30;;;;;;492053;242;1220;-76
2021/06/28 04:38:01;;;;;;;;;;;22.00;56.40;;;;;;492180;242;1055;-76
2021/06/28 04:40:03;;;;;;;;;;;22.00;56.30;;;;;;492066;242;1063;-76
2021/06/28 04:42:04;;;;;;;;;;;22.00;56.30;;;;;;491950;242;1096;-76
2021/06/28 04:44:05;;;;;;;;;;;21.90;56.30;;;;;;492050;242;1147;-76
2021/06/28 04:46:07;;;;;;;;;;;22.00;56.30;;;;;;491990;242;2219;-76
2021/06/28 04:48:08;;;;;;;;;;;22.00;56.30;;;;;;492055;242;1092;-76
2021/06/28 04:50:09;;;;;;;;;;;21.90;56.50;;;;;;492039;242;1132;-76
2021/06/28 04:52:11;;;;;;;;;;;21.90;56.40;;;;;;492000;242;1058;-76
2021/06/28 04:54:12;;;;;;;;;;;21.90;56.50;;;;;;492186;242;1030;-76
2021/06/28 04:56:13;;;;;;;;;;;22.20;55.90;;;;;;492061;242;1151;-76
2021/06/28 04:58:15;;;;;;;;;;;22.00;56.10;;;;;;492112;242;1569;-76
2021/06/28 05:00:16;;;;;;;;;;;22.00;56.20;;;;;;492108;242;1163;-76
2021/06/28 05:02:17;;;;;;;;;;;21.90;56.40;;;;;;492006;242;1184;-76
2021/06/28 05:04:19;;;;;;;;;;;21.90;56.40;;;;;;491989;242;1193;-76
2021/06/28 05:06:20;;;;;;;;;;;21.90;56.40;;;;;;491992;242;2113;-76
2021/06/28 05:08:21;;;;;;;;;;;22.00;56.30;;;;;;491993;242;1074;-76
2021/06/28 05:10:23;;;;;;;;;;;22.00;56.20;;;;;;492061;242;1085;-76
2021/06/28 05:12:24;;;;;;;;;;;22.00;56.30;;;;;;491923;242;1042;-76
2021/06/28 05:14:26;;;;;;;;;;;22.00;56.20;;;;;;492058;242;1189;-76
2021/06/28 05:16:27;;;;;;;;;;;22.00;56.40;;;;;;492090;242;1223;-76
2021/06/28 05:18:28;;;;;;;;;;;22.00;56.40;;;;;;491967;242;1098;-76
2021/06/28 05:20:30;;;;;;;;;;;22.00;56.30;;;;;;491960;242;1261;-76
2021/06/28 05:22:31;;;;;;;;;;;22.10;56.30;;;;;;491984;242;1177;-76
2021/06/28 05:24:32;;;;;;;;;;;22.00;56.20;;;;;;491964;242;1154;-76
2021/06/28 05:26:34;;;;;;;;;;;22.00;56.20;;;;;;492043;242;2116;-76
2021/06/28 05:28:35;;;;;;;;;;;22.10;56.30;;;;;;491916;242;1146;-76
2021/06/28 05:30:37;;;;;;;;;;;22.10;56.20;;;;;;491962;242;1181;-77
2021/06/28 05:32:38;;;;;;;;;;;22.10;56.30;;;;;;491789;242;1084;-76
2021/06/28 05:34:39;;;;;;;;;;;22.00;56.20;;;;;;491832;242;1038;-76
2021/06/28 05:36:41;;;;;;;;;;;22.00;56.40;;;;;;491864;242;1224;-76
2021/06/28 05:38:42;;;;;;;;;;;22.10;56.30;;;;;;491943;242;1090;-76
2021/06/28 05:40:43;;;;;;;;;;;22.10;56.20;;;;;;491828;242;1348;-76
2021/06/28 05:42:46;;;;;;;;;;;22.10;56.20;;;;;;491797;242;1190;-76
2021/06/28 05:44:46;;;;;;;;;;;22.10;56.40;;;;;;491737;242;1901;-76
2021/06/28 05:46:47;;;;;;;;;;;22.00;56.30;;;;;;491733;238;2172;-76
2021/06/28 05:48:49;;;;;;;;;;;22.10;56.30;;;;;;491905;242;989;-76
2021/06/28 05:50:50;;;;;;;;;;;22.10;56.40;;;;;;491705;242;1048;-76
2021/06/28 05:52:51;;;;;;;;;;;22.10;56.30;;;;;;491888;242;1125;-76
2021/06/28 05:54:52;;;;;;;;;;;22.10;56.50;;;;;;491920;242;1061;-76
2021/06/28 05:56:54;;;;;;;;;;;22.20;56.30;;;;;;491861;242;1055;-76
2021/06/28 05:58:55;;;;;;;;;;;22.10;56.50;;;;;;491909;242;1201;-76
2021/06/28 06:00:59;;;;;;;;;;;22.10;56.50;;;;;;491760;242;1058;-76
2021/06/28 06:03:00;;;;;;;;;;;22.10;56.50;;;;;;491687;242;1341;-76
2021/06/28 06:05:02;;;;;;;;;;;22.10;56.50;;;;;;491563;242;2129;-76
2021/06/28 06:07:02;;;;;;;;;;;22.20;56.50;;;;;;491583;242;1406;-76
2021/06/28 06:09:03;;;;;;;;;;;22.10;56.50;;;;;;491601;242;1066;-76
2021/06/28 06:11:05;;;;;;;;;;;22.10;56.60;;;;;;491664;242;1054;-76
2021/06/28 06:13:06;;;;;;;;;;;22.20;56.50;;;;;;491797;242;1031;-76
2021/06/28 06:15:07;;;;;;;;;;;22.10;56.50;;;;;;491789;242;1169;-76
2021/06/28 06:17:08;;;;;;;;;;;22.10;56.60;;;;;;491741;242;1359;-76
2021/06/28 06:19:10;;;;;;;;;;;22.10;56.70;;;;;;491630;242;1059;-76
2021/06/28 06:21:11;;;;;;;;;;;22.00;56.90;;;;;;491566;242;1053;-76
2021/06/28 06:23:12;;;;;;;;;;;22.10;56.70;;;;;;491736;242;1015;-76
2021/06/28 06:25:14;;;;;;;;;;;22.20;56.80;;;;;;491719;242;2188;-76
2021/06/28 06:27:15;;;;;;;;;;;22.10;56.80;;;;;;491597;242;1086;-76
2021/06/28 06:29:17;;;;;;;;;;;22.10;56.80;;;;;;491593;242;1206;-76
2021/06/28 06:31:18;;;;;;;;;;;22.10;56.90;;;;;;491631;242;1079;-76
2021/06/28 06:33:21;;;;;;;;;;;22.20;56.80;;;;;;491785;242;1108;-76
2021/06/28 06:35:21;;;;;;;;;;;22.10;56.80;;;;;;491573;242;1346;-77
2021/06/28 06:37:22;;;;;;;;;;;22.10;56.80;;;;;;491866;242;1177;-76
2021/06/28 06:39:23;;;;;;;;;;;22.10;56.90;;;;;;491696;242;1051;-76
2021/06/28 06:41:25;;;;;;;;;;;22.10;57.00;;;;;;491579;242;1151;-76
2021/06/28 06:43:26;;;;;;;;;;;22.10;57.00;;;;;;491482;242;1031;-76
2021/06/28 06:45:27;;;;;;;;;;;22.10;57.00;;;;;;491375;242;2180;-76
2021/06/28 06:47:29;;;;;;;;;;;22.20;56.80;;;;;;491427;242;1133;-76
2021/06/28 06:49:30;;;;;;;;;;;22.10;57.00;;;;;;491425;242;1206;-77
2021/06/28 06:51:31;;;;;;;;;;;22.10;57.20;;;;;;491371;242;972;-76
2021/06/28 06:53:33;;;;;;;;;;;22.10;57.70;;;;;;491589;242;1055;-76
2021/06/28 06:55:34;;;;;;;;;;;22.10;58.20;;;;;;491462;242;1102;-76
2021/06/28 06:57:36;;;;;;;;;;;22.10;58.30;;;;;;491337;242;1158;-76
2021/06/28 06:59:37;;;;;;;;;;;22.10;59.00;;;;;;491228;242;1146;-76
2021/06/28 07:01:40;;;;;;;;;;;22.00;59.30;;;;;;491123;242;1069;-76
2021/06/28 07:03:40;;;;;;;;;;;22.00;59.80;;;;;;491173;242;1405;-76
2021/06/28 07:05:41;;;;;;;;;;;22.00;59.90;;;;;;491280;242;2192;-76
2021/06/28 07:07:42;;;;;;;;;;;22.00;60.10;;;;;;491320;242;1113;-76
2021/06/28 07:09:45;;;;;;;;;;;22.00;60.20;;;;;;491378;242;1075;-76
2021/06/28 07:11:45;;;;;;;;;;;22.00;60.20;;;;;;491235;242;1331;-76
2021/06/28 07:13:49;;;;;;;;;;;22.00;60.30;;;;;;491302;242;1127;-76
2021/06/28 07:15:48;;;;;;;;;;;21.90;60.40;;;;;;491425;242;1363;-76
2021/06/28 07:17:49;;;;;;;;;;;22.00;60.40;;;;;;491638;242;1071;-76
2021/06/28 07:19:50;;;;;;;;;;;22.10;60.40;;;;;;491442;242;1154;-76
2021/06/28 07:21:52;;;;;;;;;;;22.10;60.20;;;;;;491552;242;1206;-76
2021/06/28 07:23:53;;;;;;;;;;;22.20;60.00;;;;;;491801;242;1068;-76
2021/06/28 07:25:54;;;;;;;;;;;22.20;59.80;;;;;;491529;242;2176;-76
2021/06/28 07:27:56;;;;;;;;;;;22.20;59.50;;;;;;491460;242;1006;-76
2021/06/28 07:29:57;;;;;;;;;;;22.20;59.40;;;;;;491365;242;1180;-76
2021/06/28 07:31:58;;;;;;;;;;;22.30;59.20;;;;;;491273;242;1167;-76
2021/06/28 07:34:00;;;;;;;;;;;22.30;59.10;;;;;;491242;242;1034;-76
2021/06/28 07:36:01;;;;;;;;;;;22.30;58.90;;;;;;491309;242;1038;-76
2021/06/28 07:38:02;;;;;;;;;;;22.30;58.70;;;;;;491527;242;1021;-76
2021/06/28 07:40:04;;;;;;;;;;;22.30;58.60;;;;;;491415;242;1030;-76
2021/06/28 07:42:05;;;;;;;;;;;22.40;58.40;;;;;;491442;242;1356;-76
2021/06/28 07:44:07;;;;;;;;;;;22.30;58.60;;;;;;491446;242;1003;-76
2021/06/28 07:46:08;;;;;;;;;;;22.40;58.50;;;;;;491313;242;2169;-76
2021/06/28 07:48:09;;;;;;;;;;;22.40;58.30;;;;;;491293;242;994;-76
2021/06/28 07:50:10;;;;;;;;;;;22.40;58.40;;;;;;491309;242;1053;-76
2021/06/28 07:52:12;;;;;;;;;;;22.40;58.10;;;;;;491222;242;1136;-76
2021/06/28 07:54:14;;;;;;;;;;;22.30;58.30;;;;;;491318;242;1105;-76
2021/06/28 07:56:16;;;;;;;;;;;22.40;58.50;;;;;;491141;242;1297;-76
2021/06/28 07:58:16;;;;;;;;;;;22.30;58.60;;;;;;490974;242;1410;-76
2021/06/28 08:00:17;;;;;;;;;;;22.30;58.90;;;;;;491115;242;1039;-76
2021/06/28 08:02:18;;;;;;;;;;;22.30;59.30;;;;;;491195;242;1187;-76
2021/06/28 08:04:20;;;;;;;;;;;22.30;59.40;;;;;;491258;242;1076;-76
2021/06/28 08:06:21;;;;;;;;;;;22.30;59.60;;;;;;491389;242;2167;-76
2021/06/28 08:08:22;;;;;;;;;;;22.30;59.70;;;;;;491384;242;1072;-76
2021/06/28 08:10:24;;;;;;;;;;;22.30;59.80;;;;;;491529;242;1182;-75
2021/06/28 08:12:25;;;;;;;;;;;22.20;60.00;;;;;;491207;242;1063;-76
2021/06/28 08:14:26;;;;;;;;;;;22.20;60.00;;;;;;491443;242;1101;-77
2021/06/28 08:16:28;;;;;;;;;;;22.30;60.10;;;;;;491317;242;1099;-76
2021/06/28 08:18:29;;;;;;;;;;;22.20;60.10;;;;;;491482;242;1074;-76
2021/06/28 08:20:34;;;;;;;;;;;22.30;60.10;;;;;;491399;242;1155;-76
2021/06/28 08:22:32;;;;;;;;;;;22.20;60.30;;;;;;491535;242;1541;-76
2021/06/28 08:24:33;;;;;;;;;;;22.20;60.30;;;;;;491500;242;1055;-75
2021/06/28 08:26:35;;;;;;;;;;;22.20;60.20;;;;;;491432;242;2160;-76
2021/06/28 08:28:36;;;;;;;;;;;22.20;60.20;;;;;;491525;242;1037;-76
2021/06/28 08:30:37;;;;;;;;;;;22.20;60.10;;;;;;491314;242;1090;-76
2021/06/28 08:32:39;;;;;;;;;;;22.20;60.30;;;;;;491441;242;1177;-76
2021/06/28 08:34:40;;;;;;;;;;;22.30;60.10;;;;;;491324;242;1057;-76
2021/06/28 08:36:44;;;;;;;;;;;22.20;60.10;;;;;;491354;242;1471;-76
2021/06/28 08:38:43;;;;;;;;;;;22.20;60.10;;;;;;491203;242;1291;-76
2021/06/28 08:40:44;;;;;;;;;;;22.20;60.00;;;;;;491332;242;1206;-76
2021/06/28 08:42:45;;;;;;;;;;;22.20;59.80;;;;;;491421;242;1259;-76
2021/06/28 08:44:47;;;;;;;;;;;22.30;59.80;;;;;;491460;242;1052;-77
2021/06/28 08:46:48;;;;;;;;;;;22.20;59.70;;;;;;491572;242;2140;-76
2021/06/28 08:48:49;;;;;;;;;;;22.30;59.60;;;;;;491808;242;810;-76
2021/06/28 08:50:50;;;;;;;;;;;22.30;59.30;;;;;;491928;242;1367;-76
2021/06/28 08:52:52;;;;;;;;;;;22.30;59.30;;;;;;491020;242;1403;-76
2021/06/28 08:54:53;;;;;;;;;;;22.30;59.30;;;;;;491291;242;1096;-76
2021/06/28 08:56:56;;;;;;;;;;;22.60;58.70;;;;;;491401;242;1092;-76
2021/06/28 08:58:56;;;;;;;;;;;22.50;58.70;;;;;;491090;242;1424;-76
2021/06/28 09:00:57;;;;;;;;;;;22.40;58.80;;;;;;491093;242;1317;-76
2021/06/28 09:02:59;;;;;;;;;;;22.40;58.90;;;;;;491183;242;1137;-76
2021/06/28 09:05:00;;;;;;;;;;;22.40;58.70;;;;;;491236;242;1099;-76
2021/06/28 09:07:01;;;;;;;;;;;22.40;58.80;;;;;;491476;242;2204;-76
2021/06/28 09:09:04;;;;;;;;;;;22.40;58.80;;;;;;491534;242;1076;-75
2021/06/28 09:11:04;;;;;;;;;;;22.30;58.80;;;;;;491549;242;1396;-76
2021/06/28 09:13:05;;;;;;;;;;;22.30;58.80;;;;;;491290;242;1064;-76
2021/06/28 09:15:07;;;;;;;;;;;22.40;58.70;;;;;;491525;242;1173;-75
2021/06/28 09:17:08;;;;;;;;;;;22.30;58.70;;;;;;491359;242;1121;-75
2021/06/28 09:19:12;;;;;;;;;;;22.20;58.80;;;;;;491275;242;1073;-76
2021/06/28 09:21:11;;;;;;;;;;;22.30;58.80;;;;;;491068;242;1355;-76
2021/06/28 09:23:12;;;;;;;;;;;22.30;58.70;;;;;;491311;242;1073;-75
2021/06/28 09:25:13;;;;;;;;;;;22.40;58.60;;;;;;491271;242;1053;-76
2021/06/28 09:27:15;;;;;;;;;;;22.30;58.40;;;;;;491411;242;2160;-76
2021/06/28 09:29:16;;;;;;;;;;;22.40;58.40;;;;;;491489;242;1096;-76
2021/06/28 09:31:17;;;;;;;;;;;22.40;58.50;;;;;;491441;242;1376;-76
2021/06/28 09:33:19;;;;;;;;;;;22.40;58.40;;;;;;491572;242;1109;-75
2021/06/28 09:35:20;;;;;;;;;;;22.40;58.40;;;;;;491300;242;1110;-76
2021/06/28 09:37:24;;;;;;;;;;;22.40;58.30;;;;;;491448;242;1153;-75
2021/06/28 09:39:23;;;;;;;;;;;22.40;58.30;;;;;;491132;242;1373;-76
2021/06/28 09:41:24;;;;;;;;;;;22.40;58.20;;;;;;491305;242;1310;-76
2021/06/28 09:43:25;;;;;;;;;;;22.50;57.90;;;;;;491155;242;1042;-76
2021/06/28 09:45:28;;;;;;;;;;;22.40;58.10;;;;;;491250;242;1223;-76
2021/06/28 09:47:28;;;;;;;;;;;22.30;58.30;;;;;;491334;242;2148;-76
2021/06/28 09:49:31;;;;;;;;;;;22.30;58.50;;;;;;491257;242;1032;-75
2021/06/28 09:51:32;;;;;;;;;;;22.20;58.90;;;;;;491140;242;1198;-75
2021/06/28 09:53:33;;;;;;;;;;;21.90;59.70;;;;;;491463;242;1059;-74
2021/06/28 09:55:36;;;;;;;;;;;22.00;59.80;;;;;;491179;242;1188;-73
2021/06/28 09:57:36;;;;;;;;;;;22.10;59.80;;;;;;491332;242;1492;-73
2021/06/28 09:59:37;;;;;;;;;;;22.20;59.70;;;;;;491349;242;1099;-73
2021/06/28 10:01:40;;;;;;;;;;;22.10;59.70;;;;;;491301;242;1280;-73
2021/06/28 10:03:42;;;;;;;;;;;22.10;59.70;;;;;;490694;242;1381;-73
2021/06/28 10:05:54;;;;;;;;;;;22.20;59.80;;;;;;490880;242;1500;-73
2021/06/28 10:07:43;;;;;;;;;;;22.20;59.80;;;;;;490109;242;2188;-73
2021/06/28 10:09:44;;;;;;;;;;;22.20;59.70;;;;;;491185;242;1095;-73
2021/06/28 10:11:46;;;;;;;;;;;22.20;59.70;;;;;;491241;242;1205;-73
2021/06/28 10:13:47;;;;;;;;;;;22.20;59.80;;;;;;491158;242;1255;-73
2021/06/28 10:15:48;;;;;;;;;;;22.20;59.70;;;;;;491285;242;1178;-73
2021/06/28 10:17:49;;;;;;;;;;;22.10;59.60;;;;;;491294;242;1122;-74
2021/06/28 10:19:51;;;;;;;;;;;22.20;59.60;;;;;;491367;242;1050;-74
2021/06/28 10:21:52;;;;;;;;;;;22.20;59.50;;;;;;491332;242;1153;-73
2021/06/28 10:23:53;;;;;;;;;;;22.20;59.50;;;;;;491610;242;1249;-73
2021/06/28 10:25:55;;;;;;;;;;;22.20;59.50;;;;;;491250;242;1206;-74
2021/06/28 10:27:56;;;;;;;;;;;22.20;59.20;;;;;;491145;242;2143;-73
2021/06/28 10:29:57;;;;;;;;;;;22.30;59.20;;;;;;490927;242;1029;-73
2021/06/28 10:31:59;;;;;;;;;;;22.30;59.10;;;;;;491053;242;1182;-74
2021/06/28 10:34:00;;;;;;;;;;;22.30;58.90;;;;;;491448;242;1176;-74
2021/06/28 10:36:02;;;;;;;;;;;22.30;58.70;;;;;;491279;242;1860;-73
2021/06/28 10:38:03;;;;;;;;;;;22.30;58.60;;;;;;491618;242;2292;-73
2021/06/28 10:40:04;;;;;;;;;;;22.40;58.60;;;;;;491437;242;1122;-74
2021/06/28 10:42:08;;;;;;;;;;;22.40;58.50;;;;;;491401;242;1064;-74
2021/06/28 10:44:07;;;;;;;;;;;22.40;58.50;;;;;;491066;242;1388;-74
2021/06/28 10:46:08;;;;;;;;;;;22.40;58.40;;;;;;491265;242;1024;-74
2021/06/28 10:48:10;;;;;;;;;;;22.40;58.20;;;;;;491314;242;2184;-74
2021/06/28 10:50:10;;;;;;;;;;;22.40;58.20;;;;;;491213;242;1321;-74
2021/06/28 10:52:12;;;;;;;;;;;22.40;58.20;;;;;;491340;242;1165;-74
2021/06/28 10:54:16;;;;;;;;;;;22.40;58.30;;;;;;491267;242;1085;-74
2021/06/28 10:56:27;;;;;;;;;;;22.40;58.30;;;;;;491397;242;1024;-74
2021/06/28 10:58:28;;;;;;;;;;;22.50;58.10;;;;;;491555;242;1208;-74
2021/06/28 11:00:29;;;;;;;;;;;22.40;58.00;;;;;;491403;242;1085;-74
2021/06/28 11:02:31;;;;;;;;;;;22.40;58.10;;;;;;491443;242;1088;-74
2021/06/28 11:04:32;;;;;;;;;;;22.40;58.30;;;;;;491383;242;1218;-74
2021/06/28 11:06:34;;;;;;;;;;;22.40;58.00;;;;;;491316;242;1096;-74
2021/06/28 11:08:35;;;;;;;;;;;22.30;58.20;;;;;;491546;242;2140;-74
2021/06/28 11:10:36;;;;;;;;;;;22.40;58.30;;;;;;491403;242;1119;-76
2021/06/28 11:12:37;;;;;;;;;;;22.40;58.20;;;;;;491412;242;1025;-76
2021/06/28 11:14:39;;;;;;;;;;;22.40;58.10;;;;;;491487;242;1067;-76
2021/06/28 11:16:40;;;;;;;;;;;22.40;58.00;;;;;;491558;242;1453;-77
2021/06/28 11:18:42;;;;;;;;;;;22.40;58.00;;;;;;491358;242;1171;-77
2021/06/28 11:20:43;;;;;;;;;;;22.40;58.10;;;;;;491325;242;1048;-76
2021/06/28 11:22:44;;;;;;;;;;;22.40;57.90;;;;;;491312;242;1097;-76
2021/06/28 11:24:46;;;;;;;;;;;22.40;58.00;;;;;;491345;242;1018;-77
2021/06/28 11:26:47;;;;;;;;;;;22.40;58.00;;;;;;491360;242;1276;-76
2021/06/28 11:28:48;;;;;;;;;;;22.40;58.00;;;;;;491532;242;2116;-76
2021/06/28 11:30:50;;;;;;;;;;;22.40;58.10;;;;;;491426;242;1371;-74
2021/06/28 11:32:51;;;;;;;;;;;22.40;58.30;;;;;;491388;242;1230;-74
2021/06/28 11:34:52;;;;;;;;;;;22.40;58.40;;;;;;491440;242;1240;-74
2021/06/28 11:36:54;;;;;;;;;;;22.30;58.60;;;;;;491374;242;1253;-74
2021/06/28 11:38:55;;;;;;;;;;;22.40;58.70;;;;;;491450;242;1191;-74
2021/06/28 11:40:56;;;;;;;;;;;22.30;58.60;;;;;;491359;242;1080;-74
2021/06/28 11:42:58;;;;;;;;;;;22.30;58.70;;;;;;491255;242;1089;-74
2021/06/28 11:44:59;;;;;;;;;;;22.30;58.90;;;;;;491272;242;1046;-74
2021/06/28 11:47:00;;;;;;;;;;;22.30;58.90;;;;;;491145;242;2179;-74
2021/06/28 11:49:02;;;;;;;;;;;22.20;59.00;;;;;;491307;242;1156;-74
2021/06/28 11:51:03;;;;;;;;;;;22.20;59.00;;;;;;491265;242;1081;-74
2021/06/28 11:53:05;;;;;;;;;;;22.20;59.00;;;;;;491383;242;1175;-74
2021/06/28 11:55:06;;;;;;;;;;;22.30;58.90;;;;;;491418;242;1060;-74
2021/06/28 11:57:07;;;;;;;;;;;22.20;59.10;;;;;;491208;242;1050;-74